Time;durP1;ratioP1;P1;durP2;ratioP2;P2;SDS_P1;SDS_P2;PMS_P1;PMS_P2;Temp;Humidity;BMP_temperature;BMP_pressure;BME280_temperature;BME280_humidity;BME280_pressure;Samples;Min_cycle;Max_cycle;Signal;HPM_P1;HPM_P2
2022/03/11 00:01:20;;;;;;;12.30;7.85;;;10.30;43.20;;;;;;5087953;28;20126;-61
2022/03/11 00:03:46;;;;;;;12.07;7.45;;;10.20;43.30;;;;;;5086582;28;20120;-61
2022/03/11 00:06:12;;;;;;;13.95;8.57;;;10.30;43.40;;;;;;5069672;28;20085;-65
2022/03/11 00:08:37;;;;;;;13.10;8.02;;;10.20;43.40;;;;;;5087685;28;20047;-61
2022/03/11 00:11:05;;;;;;;12.63;7.88;;;10.20;43.40;;;;;;5088868;28;20028;-61
2022/03/11 00:13:30;;;;;;;14.50;8.40;;;10.10;43.50;;;;;;5071500;28;20039;-61
2022/03/11 00:15:56;;;;;;;10.75;7.40;;;10.10;43.80;;;;;;5088858;28;20020;-65
2022/03/11 00:18:22;;;;;;;13.93;8.10;;;10.10;43.80;;;;;;5049551;28;20124;-65
2022/03/11 00:20:47;;;;;;;11.90;7.55;;;10.00;44.50;;;;;;5068100;28;20056;-60
2022/03/11 00:23:13;;;;;;;12.57;7.97;;;10.00;43.80;;;;;;5088251;28;20032;-65
2022/03/11 00:25:39;;;;;;;13.20;8.70;;;9.90;43.90;;;;;;5088039;28;20498;-61
2022/03/11 00:28:05;;;;;;;12.70;8.43;;;9.90;44.00;;;;;;5088464;28;20032;-61
2022/03/11 00:30:31;;;;;;;15.57;8.77;;;9.90;44.20;;;;;;5063844;28;20038;-66
2022/03/11 00:32:57;;;;;;;14.27;8.38;;;9.90;44.30;;;;;;5069646;28;20028;-65
2022/03/11 00:35:22;;;;;;;18.17;8.05;;;9.80;44.60;;;;;;5070237;28;20069;-60
2022/03/11 00:37:48;;;;;;;15.32;8.07;;;9.80;44.60;;;;;;5088438;28;20401;-60
2022/03/11 00:40:14;;;;;;;12.15;7.45;;;9.70;44.60;;;;;;5080191;28;20108;-61
2022/03/11 00:42:40;;;;;;;12.52;8.73;;;9.70;44.80;;;;;;5086385;28;20049;-61
2022/03/11 00:45:07;;;;;;;14.35;9.07;;;9.60;44.90;;;;;;5070606;28;20066;-61
2022/03/11 00:47:32;;;;;;;13.30;8.35;;;9.60;45.10;;;;;;5088246;28;20494;-60
2022/03/11 00:49:58;;;;;;;15.63;9.13;;;9.60;45.10;;;;;;5088356;28;20070;-59
2022/03/11 00:52:24;;;;;;;13.50;8.25;;;9.60;45.40;;;;;;5087557;28;20118;-65
2022/03/11 00:54:49;;;;;;;12.65;8.90;;;9.50;45.30;;;;;;5088298;28;20032;-61
2022/03/11 00:57:16;;;;;;;14.60;8.63;;;9.50;45.40;;;;;;5087958;28;20055;-60
2022/03/11 00:59:42;;;;;;;15.02;8.88;;;9.50;45.60;;;;;;5087962;28;20345;-60
2022/03/11 01:02:08;;;;;;;16.55;9.15;;;9.40;45.60;;;;;;5091602;28;20046;-63
2022/03/11 01:04:33;;;;;;;16.42;8.85;;;9.40;45.80;;;;;;5091320;28;20416;-60
2022/03/11 01:06:59;;;;;;;13.98;8.82;;;9.40;46.00;;;;;;5086154;28;20077;-65
2022/03/11 01:09:25;;;;;;;16.48;9.07;;;9.40;46.00;;;;;;5091383;28;20186;-65
2022/03/11 01:11:51;;;;;;;14.98;8.07;;;9.30;46.10;;;;;;5073094;28;20081;-61
2022/03/11 01:14:16;;;;;;;13.15;8.68;;;9.30;46.10;;;;;;5091622;28;20024;-65
2022/03/11 01:16:42;;;;;;;13.00;8.48;;;9.30;46.20;;;;;;5091050;28;20527;-64
2022/03/11 01:19:08;;;;;;;13.93;8.75;;;9.20;46.30;;;;;;5091236;28;20656;-65
2022/03/11 01:21:34;;;;;;;13.77;8.95;;;9.20;46.40;;;;;;5091233;28;20028;-65
2022/03/11 01:23:59;;;;;;;14.60;9.32;;;9.20;46.50;;;;;;5072952;28;20460;-65
2022/03/11 01:26:25;;;;;;;15.00;9.05;;;9.20;46.60;;;;;;5090686;28;20036;-65
2022/03/11 01:28:52;;;;;;;15.48;9.18;;;9.10;46.90;;;;;;5091091;28;20040;-60
2022/03/11 01:31:18;;;;;;;15.25;9.70;;;9.10;46.90;;;;;;5073167;28;20063;-60
2022/03/11 01:33:45;;;;;;;13.18;9.52;;;9.10;47.00;;;;;;5090676;28;20419;-60
2022/03/11 01:36:12;;;;;;;13.15;9.27;;;9.10;47.30;;;;;;5090907;28;20044;-61
2022/03/11 01:38:39;;;;;;;15.65;10.18;;;9.00;47.10;;;;;;5091181;28;20073;-65
2022/03/11 01:41:05;;;;;;;13.52;8.88;;;9.00;48.00;;;;;;5072494;28;20050;-64
2022/03/11 01:44:07;;;;;;;13.95;9.57;;;9.00;47.40;;;;;;5089991;28;20352;-60
2022/03/11 01:46:35;;;;;;;12.00;8.20;;;9.00;47.50;;;;;;5088996;28;20032;-64
2022/03/11 01:49:02;;;;;;;14.05;9.55;;;8.90;47.40;;;;;;5091212;28;20043;-65
2022/03/11 01:51:30;;;;;;;13.50;9.20;;;8.90;47.60;;;;;;5090653;28;20082;-64
2022/03/11 01:53:56;;;;;;;13.43;9.35;;;8.80;47.80;;;;;;5087440;28;20074;-60
2022/03/11 01:56:23;;;;;;;13.48;8.85;;;8.80;47.80;;;;;;5090564;28;20035;-61
2022/03/11 01:58:51;;;;;;;15.43;9.00;;;8.80;47.80;;;;;;5089976;28;20030;-60
2022/03/11 02:01:21;;;;;;;14.07;9.13;;;8.80;48.10;;;;;;5072095;28;20036;-65
2022/03/11 02:03:47;;;;;;;13.20;9.20;;;8.70;48.10;;;;;;5089982;28;20017;-65
2022/03/11 02:06:15;;;;;;;12.25;8.38;;;8.70;48.20;;;;;;5090386;28;20421;-65
2022/03/11 02:08:41;;;;;;;14.55;8.98;;;8.60;48.20;;;;;;5073903;28;20036;-65
2022/03/11 02:11:07;;;;;;;13.27;8.68;;;8.60;48.20;;;;;;5072576;28;20034;-66
2022/03/11 02:13:55;;;;;;;14.68;9.57;;;8.60;48.40;;;;;;5071441;28;20390;-61
2022/03/11 02:16:24;;;;;;;14.27;9.10;;;8.60;48.50;;;;;;5089917;28;20851;-60
2022/03/11 02:18:51;;;;;;;14.82;9.25;;;8.50;48.50;;;;;;5090345;28;20562;-60
2022/03/11 02:21:19;;;;;;;14.13;8.82;;;8.50;48.50;;;;;;5090364;28;20031;-60
2022/03/11 02:23:52;;;;;;;12.40;8.63;;;8.50;48.80;;;;;;5090113;28;20047;-61
2022/03/11 02:26:20;;;;;;;11.80;8.82;;;8.50;48.90;;;;;;5090014;28;20020;-65
2022/03/11 02:28:48;;;;;;;14.10;9.15;;;8.40;48.90;;;;;;5089269;28;20028;-65
2022/03/11 02:31:14;;;;;;;13.02;8.95;;;8.40;48.90;;;;;;5089111;28;20111;-65
2022/03/11 02:33:40;;;;;;;11.75;8.27;;;8.40;49.10;;;;;;5088837;28;20024;-65
2022/03/11 02:36:06;;;;;;;12.55;8.65;;;8.40;49.00;;;;;;5089701;28;20398;-60
2022/03/11 02:38:33;;;;;;;12.65;9.15;;;8.40;49.10;;;;;;5089394;28;20028;-65
2022/03/11 02:40:59;;;;;;;12.93;8.43;;;8.30;49.20;;;;;;5090119;28;20364;-66
2022/03/11 02:43:25;;;;;;;13.85;8.93;;;8.30;49.30;;;;;;5088998;28;20043;-65
2022/03/11 02:45:51;;;;;;;13.10;9.07;;;8.30;49.30;;;;;;5089972;28;20043;-65
2022/03/11 02:48:17;;;;;;;14.57;8.32;;;8.30;49.40;;;;;;5089550;28;20032;-65
2022/03/11 02:50:43;;;;;;;10.80;7.78;;;8.20;49.30;;;;;;5089849;28;20020;-65
2022/03/11 02:53:09;;;;;;;18.23;9.25;;;8.20;49.30;;;;;;5089274;28;20058;-65
2022/03/11 02:55:35;;;;;;;14.25;9.45;;;8.20;49.50;;;;;;5089929;28;20047;-65
2022/03/11 02:58:01;;;;;;;12.10;8.63;;;8.10;49.60;;;;;;5089687;28;20064;-65
2022/03/11 03:00:26;;;;;;;15.73;9.07;;;8.10;49.60;;;;;;5089699;28;20025;-61
2022/03/11 03:02:52;;;;;;;13.63;9.32;;;8.10;49.70;;;;;;5088659;28;20024;-61
2022/03/11 03:05:18;;;;;;;13.05;8.75;;;8.00;49.90;;;;;;5089690;28;20062;-60
2022/03/11 03:07:44;;;;;;;11.43;8.20;;;8.00;50.00;;;;;;5089543;28;20032;-64
2022/03/11 03:10:13;;;;;;;14.45;8.60;;;8.00;49.90;;;;;;5090184;28;20101;-59
2022/03/11 03:12:39;;;;;;;13.52;8.60;;;7.90;49.90;;;;;;5070055;28;20039;-60
2022/03/11 03:15:07;;;;;;;14.23;9.27;;;7.90;49.90;;;;;;5089287;28;20371;-60
2022/03/11 03:17:33;;;;;;;14.40;8.95;;;7.90;50.10;;;;;;5087406;28;20050;-64
2022/03/11 03:19:58;;;;;;;16.27;9.32;;;7.90;50.30;;;;;;5090104;28;20020;-60
2022/03/11 03:22:25;;;;;;;11.85;8.93;;;7.80;50.30;;;;;;5088246;28;20030;-60
2022/03/11 03:24:51;;;;;;;12.48;8.18;;;7.80;50.30;;;;;;5070839;28;20438;-60
2022/03/11 03:27:17;;;;;;;13.70;9.10;;;7.80;50.40;;;;;;5070474;28;20042;-61
2022/03/11 03:29:43;;;;;;;11.05;8.50;;;7.80;50.50;;;;;;5086009;28;20036;-59
2022/03/11 03:32:09;;;;;;;12.35;8.70;;;7.80;50.40;;;;;;5087891;28;20035;-59
2022/03/11 03:34:36;;;;;;;12.18;8.90;;;7.70;50.50;;;;;;5087493;28;20032;-59
2022/03/11 03:37:05;;;;;;;14.98;8.73;;;7.80;50.50;;;;;;5059855;28;20038;-61
2022/03/11 03:39:31;;;;;;;12.82;8.38;;;7.80;50.50;;;;;;5088975;28;20028;-61
2022/03/11 03:41:57;;;;;;;12.93;8.40;;;7.70;50.60;;;;;;5068611;28;20093;-61
2022/03/11 03:44:23;;;;;;;13.35;8.43;;;7.70;50.70;;;;;;5086808;28;20042;-62
2022/03/11 03:46:49;;;;;;;17.05;8.80;;;7.70;50.80;;;;;;5088882;28;20032;-61
2022/03/11 03:49:15;;;;;;;14.05;9.27;;;7.70;50.80;;;;;;5089030;28;20074;-61
2022/03/11 03:51:41;;;;;;;15.43;8.40;;;7.60;50.90;;;;;;5087896;28;20460;-60
2022/03/11 03:54:10;;;;;;;14.63;8.32;;;7.60;50.90;;;;;;5070098;28;20036;-60
2022/03/11 03:56:36;;;;;;;11.50;7.40;;;7.60;51.00;;;;;;5070480;28;20029;-64
2022/03/11 03:59:04;;;;;;;14.80;8.40;;;7.60;51.10;;;;;;5088391;28;20028;-65
2022/03/11 04:01:33;;;;;;;14.57;9.02;;;7.50;51.00;;;;;;5088028;28;20032;-64
2022/03/11 04:03:59;;;;;;;12.88;8.02;;;7.50;51.20;;;;;;5070615;28;20040;-66
2022/03/11 04:06:24;;;;;;;13.13;8.38;;;7.50;51.10;;;;;;5087954;28;20028;-66
2022/03/11 04:08:50;;;;;;;12.40;7.43;;;7.40;51.30;;;;;;5089078;28;20079;-66
2022/03/11 04:11:16;;;;;;;11.35;7.15;;;7.40;51.30;;;;;;5089124;28;20024;-66
2022/03/11 04:13:43;;;;;;;12.82;7.95;;;7.40;51.30;;;;;;5087337;28;20039;-66
2022/03/11 04:16:08;;;;;;;11.90;7.78;;;7.40;51.40;;;;;;5086289;28;20483;-65
2022/03/11 04:18:34;;;;;;;11.00;7.55;;;7.30;51.40;;;;;;5085875;28;20052;-65
2022/03/11 04:21:00;;;;;;;10.65;6.97;;;7.30;51.50;;;;;;5071303;28;20016;-61
2022/03/11 04:23:26;;;;;;;12.18;8.20;;;7.30;51.50;;;;;;5088012;28;20035;-61
2022/03/11 04:25:51;;;;;;;12.25;9.18;;;7.30;51.70;;;;;;5088758;28;20040;-65
2022/03/11 04:28:17;;;;;;;11.70;7.93;;;7.30;51.80;;;;;;5087690;28;20059;-61
2022/03/11 04:30:43;;;;;;;10.73;7.57;;;7.30;51.90;;;;;;5086872;28;20043;-65
2022/03/11 04:33:08;;;;;;;13.55;7.85;;;7.30;51.90;;;;;;5087585;28;20502;-65
2022/03/11 04:35:35;;;;;;;11.05;7.60;;;7.20;52.00;;;;;;5089699;28;20031;-65
2022/03/11 04:38:00;;;;;;;13.25;9.15;;;7.20;52.10;;;;;;5092326;28;20158;-66
2022/03/11 04:40:26;;;;;;;12.48;7.93;;;7.20;52.20;;;;;;5081268;28;20108;-61
2022/03/11 04:42:52;;;;;;;14.00;8.07;;;7.20;52.10;;;;;;5091314;28;20036;-61
2022/03/11 04:45:18;;;;;;;14.18;8.27;;;7.10;52.10;;;;;;5091950;28;20905;-61
2022/03/11 04:47:44;;;;;;;14.15;8.18;;;7.10;52.40;;;;;;5073989;28;20085;-61
2022/03/11 04:50:09;;;;;;;11.50;7.75;;;7.10;52.30;;;;;;5090681;28;20043;-60
2022/03/11 04:52:36;;;;;;;12.98;7.70;;;7.10;52.40;;;;;;5055819;28;20056;-61
2022/03/11 04:55:02;;;;;;;12.15;8.02;;;7.10;52.50;;;;;;5092114;28;20032;-61
2022/03/11 04:57:28;;;;;;;14.55;8.52;;;7.10;52.70;;;;;;5090606;28;20050;-65
2022/03/11 04:59:54;;;;;;;12.05;7.82;;;7.10;52.60;;;;;;5090863;28;20033;-65
2022/03/11 05:02:30;;;;;;;11.25;7.18;;;7.10;52.50;;;;;;5090790;28;20020;-65
2022/03/11 05:04:56;;;;;;;10.02;7.25;;;7.00;52.50;;;;;;5091767;28;20024;-65
2022/03/11 05:07:22;;;;;;;15.45;8.20;;;7.00;52.70;;;;;;5091700;28;20498;-60
2022/03/11 05:09:48;;;;;;;11.27;7.45;;;7.00;52.80;;;;;;5091096;28;20028;-60
2022/03/11 05:12:14;;;;;;;13.98;7.55;;;7.00;52.90;;;;;;5088885;28;20083;-65
2022/03/11 05:14:39;;;;;;;11.95;7.78;;;6.90;53.10;;;;;;5072974;28;20541;-65
2022/03/11 05:17:05;;;;;;;11.30;7.22;;;6.90;53.10;;;;;;5091542;28;20028;-60
2022/03/11 05:19:31;;;;;;;10.63;7.40;;;6.90;53.00;;;;;;5091548;28;20036;-65
2022/03/11 05:21:57;;;;;;;11.52;7.15;;;6.90;53.10;;;;;;5071534;28;20039;-65
2022/03/11 05:24:23;;;;;;;11.20;7.30;;;6.90;53.10;;;;;;5072167;28;20028;-65
2022/03/11 05:26:48;;;;;;;10.57;6.95;;;6.80;53.20;;;;;;5091091;28;20028;-65
2022/03/11 05:29:17;;;;;;;11.57;7.78;;;6.80;53.10;;;;;;5088979;28;20024;-65
2022/03/11 05:31:43;;;;;;;13.70;7.78;;;6.80;53.40;;;;;;5068852;28;20028;-60
2022/03/11 05:34:10;;;;;;;13.88;8.77;;;6.80;53.60;;;;;;5074878;28;20696;-60
2022/03/11 05:36:35;;;;;;;12.35;7.28;;;6.80;53.50;;;;;;5096723;28;20055;-61
2022/03/11 05:39:01;;;;;;;11.82;7.22;;;6.80;53.50;;;;;;5091806;28;20051;-65
2022/03/11 05:41:27;;;;;;;11.77;7.20;;;6.70;53.50;;;;;;5089461;28;20032;-60
2022/03/11 05:43:53;;;;;;;12.55;7.68;;;6.70;53.50;;;;;;5092474;28;20039;-60
2022/03/11 05:46:19;;;;;;;11.85;7.18;;;6.70;53.50;;;;;;5091480;28;20058;-60
2022/03/11 05:48:45;;;;;;;12.05;7.53;;;6.70;53.50;;;;;;5093611;28;20036;-60
2022/03/11 05:51:10;;;;;;;10.77;7.60;;;6.70;53.60;;;;;;5091597;28;20483;-65
2022/03/11 05:53:36;;;;;;;11.30;7.78;;;6.70;53.70;;;;;;5071536;28;20536;-60
2022/03/11 05:56:02;;;;;;;10.23;7.20;;;6.70;53.80;;;;;;5090798;28;20036;-61
2022/03/11 05:58:28;;;;;;;17.42;8.63;;;6.60;54.10;;;;;;5079337;28;20489;-65
2022/03/11 06:00:53;;;;;;;10.80;7.13;;;6.60;54.10;;;;;;5091003;28;20500;-60
2022/03/11 06:03:20;;;;;;;11.82;7.30;;;6.60;54.20;;;;;;5090658;28;20027;-60
2022/03/11 06:05:46;;;;;;;11.55;6.93;;;6.60;54.50;;;;;;5092571;28;20040;-66
2022/03/11 06:08:12;;;;;;;10.50;6.95;;;6.50;54.30;;;;;;5102220;28;20042;-65
2022/03/11 06:10:37;;;;;;;12.73;7.57;;;6.50;54.30;;;;;;5096277;28;20103;-65
2022/03/11 06:13:03;;;;;;;11.68;7.68;;;6.50;54.40;;;;;;5094950;28;20024;-60
2022/03/11 06:15:29;;;;;;;12.55;7.40;;;6.50;54.50;;;;;;5090134;28;20027;-65
2022/03/11 06:17:54;;;;;;;12.18;7.85;;;6.50;54.70;;;;;;5073401;28;20464;-60
2022/03/11 06:20:21;;;;;;;11.52;7.07;;;6.50;54.70;;;;;;5091196;28;20607;-60
2022/03/11 06:22:52;;;;;;;13.57;8.02;;;6.50;54.80;;;;;;5093282;28;20047;-61
2022/03/11 06:25:19;;;;;;;12.98;8.20;;;6.50;55.00;;;;;;5090700;28;20123;-61
2022/03/11 06:27:45;;;;;;;10.82;6.95;;;6.50;54.90;;;;;;5089819;28;20036;-66
2022/03/11 06:30:11;;;;;;;13.10;7.75;;;6.50;54.80;;;;;;5073195;28;20039;-61
2022/03/11 06:32:42;;;;;;;14.88;7.90;;;6.50;54.90;;;;;;5068645;28;20454;-61
2022/03/11 06:35:08;;;;;;;14.32;8.48;;;6.50;54.90;;;;;;5070879;28;20332;-61
2022/03/11 06:37:34;;;;;;;15.85;8.50;;;6.50;54.90;;;;;;5100165;28;20034;-60
2022/03/11 06:40:00;;;;;;;12.02;7.72;;;6.50;54.90;;;;;;5094550;28;20032;-61
2022/03/11 06:42:34;;;;;;;11.63;7.28;;;6.50;55.00;;;;;;5072270;28;20036;-61
2022/03/11 06:45:00;;;;;;;11.13;7.13;;;6.50;54.90;;;;;;5100670;28;20530;-66
2022/03/11 06:47:25;;;;;;;12.70;7.90;;;6.50;54.80;;;;;;5089021;28;20099;-66
2022/03/11 06:49:51;;;;;;;15.18;9.57;;;6.60;55.10;;;;;;5068931;28;20093;-61
2022/03/11 06:52:17;;;;;;;14.15;8.07;;;6.60;55.20;;;;;;5087475;28;20478;-60
2022/03/11 06:54:42;;;;;;;13.02;7.25;;;6.50;55.10;;;;;;5068495;28;20089;-61
2022/03/11 06:57:08;;;;;;;11.30;7.40;;;6.50;55.00;;;;;;5069271;28;20115;-60
2022/03/11 06:59:34;;;;;;;13.60;8.70;;;6.60;55.10;;;;;;5103034;28;20107;-60
2022/03/11 07:01:59;;;;;;;22.88;8.93;;;6.60;55.20;;;;;;5095089;28;20106;-60
2022/03/11 07:04:25;;;;;;;13.65;8.48;;;6.50;55.10;;;;;;5079701;28;20036;-66
2022/03/11 07:06:51;;;;;;;12.85;7.68;;;6.60;55.10;;;;;;5069963;28;20089;-60
2022/03/11 07:09:16;;;;;;;12.90;7.22;;;6.60;55.20;;;;;;5089042;28;20089;-65
2022/03/11 07:11:42;;;;;;;11.57;6.90;;;6.60;55.20;;;;;;5087384;28;20027;-65
2022/03/11 07:14:08;;;;;;;13.35;9.05;;;6.60;54.90;;;;;;5070582;28;20028;-60
2022/03/11 07:16:33;;;;;;;11.32;7.47;;;6.70;55.10;;;;;;5087951;28;20643;-65
2022/03/11 07:18:59;;;;;;;15.10;8.43;;;6.70;55.10;;;;;;5086167;28;20493;-61
2022/03/11 07:21:25;;;;;;;10.35;7.30;;;6.70;55.30;;;;;;5087607;28;20097;-60
2022/03/11 07:23:54;;;;;;;15.65;8.68;;;6.70;55.10;;;;;;5088916;28;20454;-60
2022/03/11 07:26:21;;;;;;;14.07;7.97;;;6.80;55.10;;;;;;5071522;28;20032;-61
2022/03/11 07:28:46;;;;;;;12.45;7.05;;;6.80;54.90;;;;;;5089117;28;20112;-62
2022/03/11 07:31:12;;;;;;;11.38;7.20;;;6.80;54.80;;;;;;5089185;28;20510;-61
2022/03/11 07:33:38;;;;;;;12.52;7.80;;;6.80;54.80;;;;;;5070259;28;20028;-61
2022/03/11 07:36:04;;;;;;;12.43;7.57;;;6.90;54.80;;;;;;5054471;28;20498;-61
2022/03/11 07:38:31;;;;;;;16.58;7.93;;;6.90;54.60;;;;;;5088701;28;20027;-61
2022/03/11 07:40:59;;;;;;;10.43;6.85;;;7.00;54.70;;;;;;5089227;28;20032;-59
2022/03/11 07:43:26;;;;;;;15.60;8.05;;;7.00;54.60;;;;;;5083445;28;20037;-60
2022/03/11 07:45:52;;;;;;;11.30;7.63;;;7.00;54.50;;;;;;5080614;28;20394;-61
2022/03/11 07:48:19;;;;;;;13.00;8.48;;;7.10;54.40;;;;;;5088486;28;20028;-60
2022/03/11 07:50:45;;;;;;;16.60;9.15;;;7.10;54.50;;;;;;5063090;28;20328;-60
2022/03/11 07:53:11;;;;;;;15.68;9.40;;;7.20;54.40;;;;;;5087829;28;20433;-60
2022/03/11 07:55:36;;;;;;;14.27;8.93;;;7.20;54.30;;;;;;5087542;28;20028;-61
2022/03/11 07:58:03;;;;;;;16.83;9.50;;;7.20;54.10;;;;;;5087344;28;20036;-64
2022/03/11 08:00:29;;;;;;;15.25;9.38;;;7.30;54.10;;;;;;5087720;28;20008;-65
2022/03/11 08:02:54;;;;;;;15.70;8.48;;;7.30;54.00;;;;;;5087454;28;20433;-65
2022/03/11 08:05:20;;;;;;;16.42;9.38;;;7.40;54.20;;;;;;5088518;28;20032;-60
2022/03/11 08:07:48;;;;;;;16.52;9.77;;;7.50;54.10;;;;;;5074845;28;20036;-60
2022/03/11 08:10:15;;;;;;;18.25;10.18;;;7.50;53.60;;;;;;5087636;28;20486;-65
2022/03/11 08:12:41;;;;;;;14.38;9.45;;;7.60;53.50;;;;;;5090783;28;20277;-65
2022/03/11 08:15:08;;;;;;;13.77;8.35;;;7.60;53.30;;;;;;5073672;28;20432;-64
2022/03/11 08:17:34;;;;;;;16.98;9.77;;;7.70;53.30;;;;;;5091864;28;20515;-65
2022/03/11 08:20:00;;;;;;;17.70;10.55;;;7.70;53.10;;;;;;5091743;28;20036;-60
2022/03/11 08:22:26;;;;;;;17.83;10.73;;;7.70;53.10;;;;;;5091568;28;20441;-61
2022/03/11 08:24:52;;;;;;;17.65;10.70;;;7.80;53.30;;;;;;5073404;28;20035;-60
2022/03/11 08:27:17;;;;;;;13.95;9.43;;;7.80;53.10;;;;;;5091378;28;20036;-61
2022/03/11 08:29:43;;;;;;;13.82;9.65;;;7.80;52.90;;;;;;5092409;28;20031;-61
2022/03/11 08:32:09;;;;;;;16.15;10.13;;;7.90;52.70;;;;;;5091692;28;20030;-61
2022/03/11 08:34:35;;;;;;;13.63;9.30;;;8.00;52.60;;;;;;5092357;28;20131;-61
2022/03/11 08:37:00;;;;;;;15.82;10.23;;;8.00;52.70;;;;;;5072525;28;20036;-65
2022/03/11 08:39:26;;;;;;;13.45;9.25;;;8.10;52.60;;;;;;5091800;28;20024;-65
2022/03/11 08:41:52;;;;;;;16.45;10.35;;;8.20;52.40;;;;;;5091038;28;20028;-65
2022/03/11 08:44:17;;;;;;;14.20;9.35;;;8.30;52.50;;;;;;5074175;28;20028;-65
2022/03/11 08:46:43;;;;;;;18.30;9.95;;;8.30;51.90;;;;;;5073885;28;20029;-65
2022/03/11 08:49:09;;;;;;;19.05;11.57;;;8.40;51.80;;;;;;5092053;28;20060;-65
2022/03/11 08:51:35;;;;;;;20.20;11.07;;;8.50;51.80;;;;;;5091268;28;20032;-65
2022/03/11 08:54:02;;;;;;;18.73;11.70;;;8.50;51.60;;;;;;5107355;28;20055;-66
2022/03/11 08:56:28;;;;;;;19.85;11.73;;;8.60;51.50;;;;;;5091766;28;20034;-61
2022/03/11 08:58:54;;;;;;;23.30;12.68;;;8.70;51.10;;;;;;5091704;28;20043;-66
2022/03/11 09:01:20;;;;;;;17.90;13.07;;;8.70;50.60;;;;;;5073729;28;20024;-61
2022/03/11 09:03:46;;;;;;;19.77;12.43;;;8.80;50.20;;;;;;5091381;28;20040;-61
2022/03/11 09:06:11;;;;;;;18.85;12.15;;;8.90;50.40;;;;;;5072065;28;20539;-61
2022/03/11 09:08:37;;;;;;;22.55;13.68;;;9.00;50.50;;;;;;5090673;28;20032;-66
2022/03/11 09:11:03;;;;;;;20.50;12.98;;;9.00;49.80;;;;;;5082344;28;20032;-61
2022/03/11 09:13:28;;;;;;;20.75;13.27;;;9.10;49.70;;;;;;5099435;28;20036;-61
2022/03/11 09:15:54;;;;;;;23.42;13.95;;;9.20;49.50;;;;;;5073832;28;20023;-61
2022/03/11 09:18:19;;;;;;;23.45;12.35;;;9.20;49.20;;;;;;5092281;28;20387;-60
2022/03/11 09:20:45;;;;;;;20.48;12.55;;;9.20;49.00;;;;;;5073140;28;20108;-61
2022/03/11 09:23:11;;;;;;;21.50;12.63;;;9.30;49.20;;;;;;5090615;28;20398;-65
2022/03/11 09:25:37;;;;;;;19.13;13.02;;;9.40;49.30;;;;;;5082794;28;20024;-65
2022/03/11 09:28:06;;;;;;;22.02;12.57;;;9.40;48.50;;;;;;5072342;28;20031;-65
2022/03/11 09:30:32;;;;;;;19.27;12.45;;;9.50;48.60;;;;;;5091036;28;20162;-65
2022/03/11 09:32:58;;;;;;;20.15;12.13;;;9.60;48.70;;;;;;5093300;28;20071;-65
2022/03/11 09:35:24;;;;;;;18.98;11.77;;;9.70;48.80;;;;;;5092796;28;20027;-65
2022/03/11 09:37:50;;;;;;;23.15;13.35;;;9.80;48.30;;;;;;5088413;28;20024;-65
2022/03/11 09:40:16;;;;;;;20.50;13.57;;;9.80;48.10;;;;;;5087510;28;20028;-65
2022/03/11 09:42:43;;;;;;;22.45;12.63;;;9.90;47.80;;;;;;5085114;28;20039;-61
2022/03/11 09:45:10;;;;;;;19.80;12.55;;;10.00;47.70;;;;;;5078401;28;20118;-66
2022/03/11 09:47:39;;;;;;;19.85;13.45;;;10.10;47.80;;;;;;5095054;28;20065;-65
2022/03/11 09:50:05;;;;;;;19.27;12.95;;;10.20;47.60;;;;;;5091927;28;20040;-61
2022/03/11 09:52:32;;;;;;;15.18;9.95;;;10.30;47.50;;;;;;5094296;28;20048;-64
2022/03/11 09:54:58;;;;;;;15.63;9.60;;;10.40;47.90;;;;;;5089878;28;20059;-64
2022/03/11 09:57:23;;;;;;;17.20;10.32;;;10.60;47.80;;;;;;5089219;28;20027;-63
2022/03/11 09:59:50;;;;;;;16.63;10.85;;;10.70;47.60;;;;;;5074598;28;20472;-63
2022/03/11 10:02:17;;;;;;;18.58;11.80;;;10.80;46.90;;;;;;5093976;28;20107;-63
2022/03/11 10:04:57;;;;;;;18.42;11.40;;;10.90;46.60;;;;;;5087175;28;20159;-63
2022/03/11 10:07:27;;;;;;;20.02;10.95;;;11.00;46.60;;;;;;5086899;28;20621;-59
2022/03/11 10:09:55;;;;;;;18.52;11.43;;;11.10;46.60;;;;;;5085624;28;20131;-60
2022/03/11 10:12:27;;;;;;;21.42;10.73;;;11.30;46.20;;;;;;5090133;28;20020;-60
2022/03/11 10:15:01;;;;;;;15.93;10.80;;;11.40;46.40;;;;;;5070207;28;20036;-60
2022/03/11 10:17:35;;;;;;;20.00;11.38;;;11.50;46.30;;;;;;5101570;27;20080;-61
2022/03/11 10:20:06;;;;;;;17.48;12.00;;;11.60;45.70;;;;;;5069148;28;20028;-60
2022/03/11 10:22:32;;;;;;;21.67;13.30;;;11.70;45.80;;;;;;5086825;28;20050;-63
2022/03/11 10:25:17;;;;;;;19.33;12.73;;;11.80;44.90;;;;;;5085651;28;20028;-64
2022/03/11 10:28:14;;;;;;;19.35;11.50;;;11.80;44.90;;;;;;5084406;28;20119;-64
2022/03/11 10:30:42;;;;;;;21.05;12.45;;;11.90;44.80;;;;;;5094667;28;20041;-64
2022/03/11 10:33:12;;;;;;;21.17;12.75;;;11.90;44.60;;;;;;5081534;28;20032;-64
2022/03/11 10:35:47;;;;;;;17.25;12.02;;;12.00;44.70;;;;;;5091077;28;20529;-64
2022/03/11 10:38:14;;;;;;;20.35;12.52;;;12.00;44.40;;;;;;5109700;28;20027;-64
2022/03/11 10:40:48;;;;;;;20.75;12.80;;;12.10;44.30;;;;;;5109924;28;20024;-64
2022/03/11 10:43:14;;;;;;;21.95;12.50;;;12.20;44.20;;;;;;5098596;28;20024;-61
2022/03/11 10:46:03;;;;;;;18.55;11.40;;;12.30;44.20;;;;;;5109809;28;20028;-61
2022/03/11 10:48:47;;;;;;;19.58;12.20;;;12.40;44.30;;;;;;5098744;28;20528;-61
2022/03/11 10:51:26;;;;;;;18.90;12.23;;;12.50;43.70;;;;;;5107007;28;20027;-61
2022/03/11 10:53:54;;;;;;;19.70;13.18;;;12.60;43.80;;;;;;5084218;28;20494;-61
2022/03/11 10:56:34;;;;;;;19.40;12.13;;;12.60;43.40;;;;;;5088273;28;20059;-64
2022/03/11 10:59:32;;;;;;;19.90;12.05;;;12.70;43.20;;;;;;5069419;28;20052;-64
2022/03/11 11:01:58;;;;;;;17.88;11.85;;;12.80;43.30;;;;;;5076044;28;20070;-61
2022/03/11 11:04:25;;;;;;;22.55;13.00;;;12.90;42.90;;;;;;5088705;28;20493;-61
2022/03/11 11:06:52;;;;;;;20.23;13.40;;;12.90;42.90;;;;;;5087813;28;20052;-64
2022/03/11 11:09:21;;;;;;;16.60;11.15;;;13.00;43.10;;;;;;5088848;28;20054;-64
2022/03/11 11:11:47;;;;;;;19.98;11.65;;;13.10;43.10;;;;;;5087462;28;20035;-62
2022/03/11 11:14:13;;;;;;;19.50;12.60;;;13.20;43.00;;;;;;5088548;28;20036;-63
2022/03/11 11:16:41;;;;;;;18.23;11.80;;;13.40;42.50;;;;;;5088469;28;20560;-62
2022/03/11 11:19:12;;;;;;;12.77;7.18;;;13.50;42.60;;;;;;5086841;28;20052;-60
2022/03/11 11:21:40;;;;;;;14.48;7.75;;;13.60;42.10;;;;;;5085952;28;20547;-60
2022/03/11 11:24:16;;;;;;;14.75;8.20;;;13.70;42.10;;;;;;5089218;28;20028;-62
2022/03/11 11:26:47;;;;;;;19.85;13.48;;;13.80;41.80;;;;;;5077432;28;20028;-62
2022/03/11 11:29:18;;;;;;;13.00;6.82;;;13.90;41.60;;;;;;5089458;28;20024;-63
2022/03/11 11:31:45;;;;;;;15.55;10.10;;;14.00;41.70;;;;;;5089167;28;20020;-60
2022/03/11 11:34:24;;;;;;;13.88;7.93;;;14.10;41.60;;;;;;5089668;28;20487;-62
2022/03/11 11:36:50;;;;;;;11.68;6.45;;;14.20;41.70;;;;;;5070232;28;20036;-60
2022/03/11 11:39:15;;;;;;;20.90;13.35;;;14.30;41.10;;;;;;5068759;28;20028;-61
2022/03/11 11:41:54;;;;;;;13.93;9.25;;;14.30;40.30;;;;;;5086089;28;20077;-58
2022/03/11 11:44:31;;;;;;;13.98;9.13;;;14.40;40.50;;;;;;5070968;28;20143;-63
2022/03/11 11:47:32;;;;;;;14.63;9.45;;;14.40;40.40;;;;;;5088905;28;20032;-62
2022/03/11 11:50:12;;;;;;;16.17;8.32;;;14.60;40.60;;;;;;5001900;28;20563;-61
2022/03/11 11:52:52;;;;;;;15.50;7.32;;;14.60;40.60;;;;;;5061275;28;20097;-63
2022/03/11 11:55:20;;;;;;;13.85;7.00;;;14.70;40.50;;;;;;5080280;28;20048;-62
2022/03/11 11:57:47;;;;;;;20.30;13.55;;;14.90;40.60;;;;;;5087590;28;20107;-67
2022/03/11 12:00:38;;;;;;;15.32;8.00;;;15.00;40.00;;;;;;5088930;28;20028;-67
2022/03/11 12:03:05;;;;;;;7.88;3.80;;;15.10;39.90;;;;;;5069302;28;20065;-68
2022/03/11 12:05:51;;;;;;;18.27;14.40;;;15.20;39.60;;;;;;5069741;28;20051;-67
2022/03/11 12:08:39;;;;;;;22.30;15.65;;;15.30;39.20;;;;;;5088709;28;20178;-68
2022/03/11 12:11:05;;;;;;;0.30;0.30;;;15.30;39.00;;;;;;5069419;28;20040;-70
2022/03/11 12:13:35;;;;;;;761.25;68.55;;;15.20;38.90;;;;;;5087744;28;20084;-69
2022/03/11 12:16:02;;;;;;;1549.68;761.55;;;15.20;39.20;;;;;;5088048;28;20031;-64
2022/03/11 12:18:41;;;;;;;18.80;15.18;;;15.20;39.40;;;;;;5085494;28;20028;-59
2022/03/11 12:21:16;;;;;;;21.00;14.93;;;15.30;39.20;;;;;;5085923;28;20391;-59
2022/03/11 12:23:44;;;;;;;11.23;5.70;;;15.30;38.60;;;;;;5068898;28;20158;-59
2022/03/11 12:26:11;;;;;;;17.35;9.95;;;15.40;38.90;;;;;;5084624;28;20036;-59
2022/03/11 12:28:41;;;;;;;14.75;8.85;;;15.60;38.70;;;;;;5087670;28;20036;-63
2022/03/11 12:31:21;;;;;;;15.45;8.70;;;15.70;38.60;;;;;;5088133;28;20077;-63
2022/03/11 12:33:49;;;;;;;17.48;9.68;;;15.80;38.40;;;;;;5089000;28;20028;-63
2022/03/11 12:36:20;;;;;;;17.92;11.10;;;15.90;38.40;;;;;;5088665;28;20431;-62
2022/03/11 12:38:51;;;;;;;16.27;11.10;;;16.00;38.30;;;;;;5089311;28;20023;-60
2022/03/11 12:41:28;;;;;;;16.38;7.95;;;16.10;38.10;;;;;;5088569;28;20292;-59
2022/03/11 12:43:58;;;;;;;14.02;8.43;;;16.20;38.10;;;;;;5084208;28;20064;-59